Time;durP1;ratioP1;P1;durP2;ratioP2;P2;SDS_P1;SDS_P2;PMS_P1;PMS_P2;Temp;Humidity;BMP_temperature;BMP_pressure;BME280_temperature;BME280_humidity;BME280_pressure;Samples;Min_cycle;Max_cycle;Signal;HPM_P1;HPM_P2
2023/02/14 00:01:30;;;;;;;19.30;17.00;;;;;;;5.52;66.18;102287.46;111256;1254;21955;-80
2023/02/14 00:04:00;;;;;;;20.60;16.90;;;;;;;5.52;66.09;102289.19;111244;1254;21987;-81
2023/02/14 00:06:34;;;;;;;18.80;16.60;;;;;;;5.51;66.14;102285.39;111027;1255;23735;-79
2023/02/14 00:09:02;;;;;;;18.40;16.60;;;;;;;5.51;66.23;102280.38;111156;1255;23731;-79
2023/02/14 00:11:31;;;;;;;20.90;16.70;;;;;;;5.47;66.11;102288.27;111205;1255;23593;-79
2023/02/14 00:16:45;;;;;;;18.00;15.70;;;;;;;5.39;66.37;102293.49;111254;1254;23654;-80
2023/02/14 00:19:15;;;;;;;18.60;16.50;;;;;;;5.41;66.50;102298.02;111421;1254;23577;-79
2023/02/14 00:21:44;;;;;;;22.40;17.00;;;;;;;5.43;66.42;102305.46;111199;1253;23618;-80
2023/02/14 00:24:14;;;;;;;18.90;16.10;;;;;;;5.44;66.43;102304.27;111136;1253;21961;-80
2023/02/14 00:26:42;;;;;;;18.90;14.80;;;;;;;5.43;66.37;102301.85;111248;1254;23605;-79
2023/02/14 00:29:14;;;;;;;18.00;15.80;;;;;;;5.44;66.40;102305.48;111186;1254;21974;-79
2023/02/14 00:31:44;;;;;;;21.50;15.00;;;;;;;5.45;66.46;102306.01;111200;1253;21962;-79
2023/02/14 00:34:13;;;;;;;17.60;15.40;;;;;;;5.45;66.40;102305.50;111279;1254;22033;-80
2023/02/14 00:36:42;;;;;;;17.20;15.10;;;;;;;5.43;66.30;102302.36;111181;1253;21986;-80
2023/02/14 00:39:13;;;;;;;18.60;15.10;;;;;;;5.41;66.26;102307.86;111314;1254;21956;-81
2023/02/14 00:41:42;;;;;;;22.80;16.90;;;;;;;5.38;66.27;102307.81;111631;1253;23022;-80
2023/02/14 00:44:12;;;;;;;19.10;16.30;;;;;;;5.37;66.24;102307.45;111037;1254;23643;-80
2023/02/14 00:46:41;;;;;;;19.40;15.80;;;;;;;5.35;66.14;102307.75;111425;1254;21958;-80
2023/02/14 00:49:09;;;;;;;22.70;16.40;;;;;;;5.32;66.15;102307.55;110998;1254;23605;-80
2023/02/14 00:51:40;;;;;;;18.40;15.60;;;;;;;5.31;66.33;102308.91;110949;1254;22369;-79
2023/02/14 00:54:07;;;;;;;18.70;16.70;;;;;;;5.33;66.44;102311.02;111407;1254;23029;-81
2023/02/14 00:56:35;;;;;;;18.80;16.80;;;;;;;5.36;66.50;102310.70;111200;1251;21959;-81
2023/02/14 00:59:03;;;;;;;18.70;16.90;;;;;;;5.40;66.58;102317.51;111487;1254;21976;-81
2023/02/14 01:01:31;;;;;;;20.00;16.30;;;;;;;5.42;66.40;102320.66;111540;1253;23741;-80
2023/02/14 01:03:59;;;;;;;22.00;16.50;;;;;;;5.43;66.44;102316.02;111215;1253;22807;-80
2023/02/14 01:06:26;;;;;;;19.60;17.00;;;;;;;5.46;66.46;102314.33;111456;1253;21976;-80
2023/02/14 01:08:57;;;;;;;17.70;15.90;;;;;;;5.47;66.37;102311.90;111190;1254;23634;-80
2023/02/14 01:11:25;;;;;;;22.20;17.60;;;;;;;5.46;66.43;102307.94;111460;1254;21984;-79
2023/02/14 01:13:56;;;;;;;19.90;16.30;;;;;;;5.46;66.49;102303.27;111413;1254;22025;-79
2023/02/14 01:16:26;;;;;;;18.10;16.20;;;;;;;5.47;66.58;102300.70;111439;1254;21924;-80
2023/02/14 01:18:59;;;;;;;21.70;18.90;;;;;;;5.47;66.37;102299.84;111288;1254;21986;-78
2023/02/14 01:21:31;;;;;;;20.90;17.10;;;;;;;5.45;66.40;102300.15;110921;1255;22005;-79
2023/02/14 01:24:05;;;;;;;19.30;17.40;;;;;;;5.42;66.34;102296.98;111211;1254;21963;-79
2023/02/14 01:26:34;;;;;;;19.90;17.40;;;;;;;5.39;66.44;102301.10;111153;1253;21931;-79
2023/02/14 01:29:03;;;;;;;18.50;16.40;;;;;;;5.38;66.50;102302.98;111058;1255;21958;-79
2023/02/14 01:31:34;;;;;;;19.80;16.70;;;;;;;5.38;66.39;102301.27;111181;1255;22429;-80
2023/02/14 01:34:03;;;;;;;19.30;17.30;;;;;;;5.38;66.46;102297.46;111319;1254;21963;-79
2023/02/14 01:36:36;;;;;;;19.00;17.10;;;;;;;5.38;66.54;102300.73;111123;1252;21965;-79
2023/02/14 01:39:12;;;;;;;21.00;17.30;;;;;;;5.34;66.57;102299.81;111056;1255;23612;-80
2023/02/14 01:41:43;;;;;;;19.20;16.90;;;;;;;5.35;66.71;102296.88;111391;1254;22090;-78
2023/02/14 01:44:14;;;;;;;20.80;17.60;;;;;;;5.33;66.66;102295.12;111145;1253;22262;-80
2023/02/14 01:46:44;;;;;;;19.50;16.80;;;;;;;5.30;66.55;102295.77;111530;1253;23615;-81
2023/02/14 01:49:34;;;;;;;17.80;16.10;;;;;;;5.27;66.56;102296.77;110897;1260;23030;-79
2023/02/14 01:52:26;;;;;;;20.30;16.00;;;;;;;5.24;66.68;102292.94;110695;1260;22787;-80
2023/02/14 01:54:59;;;;;;;;;;;;;;;5.24;66.81;102294.67;110673;1260;24438;-80
2023/02/14 01:57:42;;;;;;;18.50;16.10;;;;;;;5.17;66.99;102292.81;110849;1260;21967;-80
2023/02/14 02:03:01;;;;;;;19.10;16.20;;;;;;;5.19;67.04;102286.98;110406;1260;22347;-79
2023/02/14 02:05:29;;;;;;;18.70;16.90;;;;;;;5.23;67.06;102280.83;110820;1260;23626;-80
2023/02/14 02:07:59;;;;;;;19.20;15.00;;;;;;;5.25;67.02;102276.88;111054;1253;23576;-79
2023/02/14 02:10:28;;;;;;;18.00;16.10;;;;;;;5.26;66.87;102275.52;111527;1251;23696;-80
2023/02/14 02:13:02;;;;;;;18.70;15.30;;;;;;;5.26;66.93;102280.02;111149;1254;22080;-79
2023/02/14 02:15:38;;;;;;;17.20;15.40;;;;;;;5.25;66.96;102279.83;110836;1261;22099;-80
2023/02/14 02:18:30;;;;;;;16.80;15.10;;;;;;;5.26;66.93;102280.54;111014;1261;21970;-80
2023/02/14 02:21:42;;;;;;;17.90;16.00;;;;;;;5.23;66.83;102278.42;110650;1262;23628;-80
2023/02/14 02:24:25;;;;;;;19.40;14.90;;;;;;;5.17;66.97;102273.51;110427;1266;21996;-81
2023/02/14 02:27:03;;;;;;;19.40;15.90;;;;;;;5.16;67.02;102277.27;110220;1267;23714;-79
2023/02/14 02:30:14;;;;;;;17.10;15.20;;;;;;;5.17;67.14;102277.29;110362;1267;22982;-80
2023/02/14 02:33:32;;;;;;;24.70;17.10;;;;;;;5.17;67.14;102274.20;110357;1264;22033;-79
2023/02/14 02:36:24;;;;;;;18.80;16.20;;;;;;;5.19;67.32;102270.41;110583;1263;23591;-79
2023/02/14 02:39:40;;;;;;;21.10;18.00;;;;;;;5.20;67.19;102266.80;110623;1263;21980;-80
2023/02/14 02:42:27;;;;;;;20.10;18.10;;;;;;;5.14;67.13;102274.14;110642;1251;22957;-79
2023/02/14 02:45:31;;;;;;;18.50;16.50;;;;;;;5.11;67.28;102277.73;110750;1263;22037;-79
2023/02/14 02:48:31;;;;;;;18.00;16.40;;;;;;;5.10;67.23;102274.93;110679;1260;21970;-78
2023/02/14 02:54:19;;;;;;;19.70;17.60;;;;;;;5.03;67.35;102270.35;109564;1270;21994;-80
2023/02/14 02:56:57;;;;;;;19.00;17.20;;;;;;;5.03;67.48;102271.89;109730;1270;21978;-79
2023/02/14 02:59:33;;;;;;;18.80;17.00;;;;;;;5.04;67.43;102275.01;109458;1270;22004;-79
2023/02/14 03:05:33;;;;;;;20.20;18.10;;;;;;;4.96;67.55;102281.77;109865;1269;21996;-80
2023/02/14 03:08:04;;;;;;;23.20;19.00;;;;;;;4.95;67.59;102278.84;109976;1269;22204;-79
2023/02/14 03:10:38;;;;;;;20.70;18.40;;;;;;;4.97;67.74;102275.07;109984;1269;23074;-79
2023/02/14 03:13:33;;;;;;;20.30;18.20;;;;;;;4.97;67.63;102274.91;109932;1268;21979;-80
2023/02/14 03:16:26;;;;;;;21.50;19.20;;;;;;;4.94;67.57;102275.02;109976;1269;22528;-78
2023/02/14 03:22:15;;;;;;;21.20;18.30;;;;;;;4.88;67.91;102274.91;109687;1269;23042;-78
2023/02/14 03:25:10;;;;;;;19.70;17.70;;;;;;;4.87;68.00;102276.98;110115;1269;21972;-79
2023/02/14 03:27:47;;;;;;;20.40;17.60;;;;;;;4.89;68.07;102278.05;109374;1269;23765;-79
2023/02/14 03:31:09;;;;;;;21.40;18.50;;;;;;;4.90;68.08;102278.77;110081;1268;23370;-78
2023/02/14 03:33:52;;;;;;;19.90;17.80;;;;;;;4.89;68.12;102278.22;109338;1272;22989;-81
2023/02/14 03:36:41;;;;;;;19.90;17.80;;;;;;;4.91;68.16;102283.08;109531;1272;22037;-79
2023/02/14 03:39:26;;;;;;;20.60;18.20;;;;;;;4.91;68.17;102281.20;109607;1272;21982;-79
2023/02/14 03:42:08;;;;;;;19.40;17.40;;;;;;;4.92;68.19;102277.58;110170;1266;23722;-78
2023/02/14 03:44:39;;;;;;;19.10;17.30;;;;;;;4.90;68.13;102273.42;110148;1265;21967;-79
2023/02/14 03:47:16;;;;;;;19.80;17.70;;;;;;;4.88;68.18;102272.70;110718;1259;22040;-80
2023/02/14 03:49:52;;;;;;;20.60;18.00;;;;;;;4.88;68.25;102274.58;110711;1259;21973;-79
2023/02/14 03:52:21;;;;;;;20.50;18.20;;;;;;;4.89;68.40;102277.02;111025;1254;22037;-79
2023/02/14 03:54:53;;;;;;;19.70;17.10;;;;;;;4.90;68.34;102277.55;111479;1252;23592;-81
2023/02/14 03:58:01;;;;;;;;;;;;;;;4.90;68.31;102276.68;111357;1254;23111;-80
2023/02/14 04:00:34;;;;;;;18.50;16.60;;;;;;;4.80;68.52;102276.68;110726;1260;23742;-80
2023/02/14 04:03:12;;;;;;;23.40;17.20;;;;;;;4.82;68.61;102275.52;110357;1262;22857;-81
2023/02/14 04:05:42;;;;;;;23.40;18.50;;;;;;;4.83;68.53;102279.33;110416;1263;23496;-80
2023/02/14 04:08:11;;;;;;;22.00;19.60;;;;;;;4.83;68.48;102279.84;110521;1262;22310;-80
2023/02/14 04:10:40;;;;;;;20.40;18.30;;;;;;;4.84;68.59;102279.52;110954;1257;23104;-80
2023/02/14 04:13:08;;;;;;;19.90;17.70;;;;;;;4.82;68.51;102279.66;110753;1262;22337;-81
2023/02/14 04:15:36;;;;;;;20.50;18.30;;;;;;;4.80;68.58;102278.77;110624;1260;22032;-81
2023/02/14 04:20:50;;;;;;;19.70;17.50;;;;;;;4.78;68.64;102283.02;110668;1260;23689;-82
2023/02/14 04:23:18;;;;;;;19.00;16.30;;;;;;;4.79;68.74;102285.98;110542;1263;21972;-83
2023/02/14 04:25:46;;;;;;;20.50;18.30;;;;;;;4.80;68.57;102282.73;110535;1260;21931;-80
2023/02/14 04:28:14;;;;;;;20.90;18.00;;;;;;;4.78;68.71;102279.95;110571;1262;22247;-79
2023/02/14 04:30:42;;;;;;;20.40;18.00;;;;;;;4.77;68.65;102276.29;110464;1259;21969;-80
2023/02/14 04:33:10;;;;;;;21.00;18.80;;;;;;;4.76;68.77;102273.35;110207;1262;23650;-79
2023/02/14 04:35:38;;;;;;;20.50;17.20;;;;;;;4.76;68.80;102271.97;110691;1262;21976;-81
2023/02/14 04:38:06;;;;;;;19.70;17.20;;;;;;;4.77;68.91;102272.33;111190;1254;21960;-80
2023/02/14 04:40:33;;;;;;;21.70;19.10;;;;;;;4.76;68.88;102270.77;111079;1254;21964;-80
2023/02/14 04:43:03;;;;;;;19.00;17.00;;;;;;;4.77;68.89;102275.59;111220;1254;23765;-80
2023/02/14 04:45:31;;;;;;;19.80;17.30;;;;;;;4.75;68.88;102279.02;111239;1255;23704;-78
2023/02/14 04:47:59;;;;;;;18.60;16.60;;;;;;;4.75;68.98;102276.60;111535;1251;21961;-81
2023/02/14 04:50:27;;;;;;;20.50;18.20;;;;;;;4.75;69.10;102272.13;111261;1254;23051;-79
2023/02/14 04:52:54;;;;;;;19.40;16.50;;;;;;;4.75;68.94;102274.36;111269;1241;23029;-79
2023/02/14 04:55:22;;;;;;;19.70;16.70;;;;;;;4.73;68.89;102274.16;111145;1254;23608;-80
2023/02/14 04:57:50;;;;;;;18.30;16.50;;;;;;;4.71;68.89;102276.54;111047;1254;21965;-80
2023/02/14 05:00:19;;;;;;;23.20;16.80;;;;;;;4.71;69.04;102274.46;111231;1254;22007;-80
2023/02/14 05:02:46;;;;;;;21.20;16.90;;;;;;;4.73;69.12;102270.02;111181;1253;23850;-81
2023/02/14 05:05:14;;;;;;;17.80;15.30;;;;;;;4.75;69.06;102273.67;111334;1254;22139;-79
2023/02/14 05:07:46;;;;;;;18.00;16.20;;;;;;;4.74;69.13;102275.56;111357;1248;21957;-80
2023/02/14 05:10:14;;;;;;;17.70;15.60;;;;;;;4.77;69.15;102276.46;111277;1254;22043;-79
2023/02/14 05:12:42;;;;;;;21.40;17.30;;;;;;;4.78;69.08;102279.59;111095;1247;22071;-79
2023/02/14 05:15:10;;;;;;;20.20;18.10;;;;;;;4.79;69.06;102282.02;111227;1251;22717;-80
2023/02/14 05:17:37;;;;;;;18.80;16.90;;;;;;;4.82;69.12;102281.73;111222;1254;23825;-82
2023/02/14 05:20:08;;;;;;;18.90;15.50;;;;;;;4.85;69.15;102287.83;111455;1253;21979;-80
2023/02/14 05:22:36;;;;;;;21.50;17.00;;;;;;;4.86;68.98;102291.13;111237;1253;21956;-80
2023/02/14 05:25:04;;;;;;;19.60;17.60;;;;;;;4.85;68.92;102290.41;111455;1254;23060;-80
2023/02/14 05:27:32;;;;;;;20.50;18.30;;;;;;;4.84;69.06;102291.59;110909;1259;23786;-81
2023/02/14 05:30:00;;;;;;;26.50;18.10;;;;;;;4.84;68.97;102289.34;110768;1259;21973;-80
2023/02/14 05:32:28;;;;;;;19.60;16.90;;;;;;;4.85;69.09;102288.52;110947;1260;21984;-80
2023/02/14 05:34:55;;;;;;;26.00;17.90;;;;;;;4.85;69.04;102287.65;110775;1260;22148;-78
2023/02/14 05:37:23;;;;;;;18.00;16.10;;;;;;;4.86;69.00;102295.08;110738;1261;22536;-79
2023/02/14 05:39:51;;;;;;;17.70;15.90;;;;;;;4.88;69.14;102302.52;110745;1260;21984;-79
2023/02/14 05:42:19;;;;;;;19.60;17.60;;;;;;;4.90;69.18;102305.33;110935;1260;22963;-79
2023/02/14 05:44:47;;;;;;;21.70;18.10;;;;;;;4.93;69.14;102301.91;110739;1260;22009;-80
2023/02/14 05:47:15;;;;;;;21.80;19.00;;;;;;;4.94;68.98;102301.76;110773;1260;21971;-78
2023/02/14 05:49:43;;;;;;;22.00;19.70;;;;;;;4.93;68.93;102304.33;110708;1260;21973;-80
2023/02/14 05:52:10;;;;;;;22.60;18.70;;;;;;;4.94;68.86;102304.70;111170;1253;21965;-79
2023/02/14 05:54:38;;;;;;;24.30;20.30;;;;;;;4.95;68.78;102300.23;111355;1243;23078;-81
2023/02/14 05:57:06;;;;;;;23.80;19.10;;;;;;;4.95;68.94;102300.41;111512;1252;23580;-80
2023/02/14 05:59:34;;;;;;;30.00;23.50;;;;;;;4.95;68.96;102309.21;111640;1254;23023;-81
2023/02/14 06:02:01;;;;;;;37.70;24.10;;;;;;;4.96;69.03;102312.15;111228;1254;24336;-80
2023/02/14 06:04:29;;;;;;;40.00;25.40;;;;;;;4.97;68.87;102312.16;111229;1254;23612;-79
2023/02/14 06:06:57;;;;;;;33.90;24.60;;;;;;;4.94;68.88;102312.81;111167;1254;21968;-79
2023/02/14 06:09:26;;;;;;;31.10;23.50;;;;;;;4.94;68.81;102312.11;111223;1244;22454;-79
2023/02/14 06:11:53;;;;;;;30.40;22.40;;;;;;;4.94;68.88;102318.16;111054;1254;23028;-80
2023/02/14 06:14:22;;;;;;;25.10;20.90;;;;;;;4.96;68.98;102325.63;111661;1254;23790;-79
2023/02/14 06:16:50;;;;;;;25.50;19.30;;;;;;;4.98;68.90;102327.70;111500;1254;21991;-79
2023/02/14 06:19:18;;;;;;;24.30;18.00;;;;;;;4.97;68.71;102324.23;111190;1254;21929;-80
2023/02/14 06:21:46;;;;;;;23.50;18.30;;;;;;;4.96;68.81;102328.55;111509;1252;22026;-78
2023/02/14 06:24:14;;;;;;;21.70;19.50;;;;;;;4.96;68.91;102322.33;111072;1255;21961;-80
2023/02/14 06:26:41;;;;;;;23.60;18.80;;;;;;;4.96;68.91;102326.81;111481;1254;23550;-79
2023/02/14 06:29:10;;;;;;;22.80;19.30;;;;;;;4.93;68.90;102327.12;111336;1254;21960;-82
2023/02/14 06:31:37;;;;;;;23.70;18.60;;;;;;;4.92;68.96;102327.96;111242;1254;21966;-80
2023/02/14 06:34:06;;;;;;;22.70;18.50;;;;;;;4.92;69.05;102334.86;111489;1254;22139;-79
2023/02/14 06:36:34;;;;;;;20.90;18.70;;;;;;;4.93;69.01;102336.94;111391;1254;23081;-79
2023/02/14 06:39:03;;;;;;;24.70;19.30;;;;;;;4.94;69.04;102343.86;111089;1254;21945;-80
2023/02/14 06:41:31;;;;;;;23.20;19.20;;;;;;;4.94;69.00;102346.11;111118;1254;21967;-80
2023/02/14 06:43:59;;;;;;;23.70;19.80;;;;;;;4.95;69.04;102345.61;111294;1254;21995;-79
2023/02/14 06:46:26;;;;;;;25.90;19.60;;;;;;;4.97;69.07;102347.02;111321;1254;21970;-79
2023/02/14 06:48:54;;;;;;;22.00;19.70;;;;;;;4.97;68.99;102349.09;111246;1254;21977;-79
2023/02/14 06:51:22;;;;;;;24.90;20.80;;;;;;;4.97;69.22;102347.73;111282;1254;21946;-79
2023/02/14 06:53:50;;;;;;;24.70;21.00;;;;;;;5.00;69.13;102356.23;111244;1254;22987;-79
2023/02/14 06:56:18;;;;;;;28.80;23.40;;;;;;;5.03;69.21;102360.59;111260;1250;23110;-78
2023/02/14 06:58:46;;;;;;;38.50;28.00;;;;;;;5.06;69.14;102358.75;111505;1254;22196;-76
2023/02/14 07:01:14;;;;;;;38.30;29.00;;;;;;;5.09;69.23;102358.45;111154;1242;21965;-78
2023/02/14 07:03:42;;;;;;;40.90;29.60;;;;;;;5.14;69.23;102356.29;111325;1254;23612;-80
2023/02/14 07:06:09;;;;;;;32.60;26.00;;;;;;;5.20;69.27;102358.11;111393;1254;23692;-78
2023/02/14 07:08:37;;;;;;;25.90;23.00;;;;;;;5.26;69.20;102356.30;111393;1255;24364;-79
2023/02/14 07:11:05;;;;;;;27.50;22.70;;;;;;;5.31;69.24;102354.14;111313;1255;23023;-80
2023/02/14 07:13:32;;;;;;;25.30;21.60;;;;;;;5.35;69.11;102354.20;111177;1255;23017;-80
2023/02/14 07:16:00;;;;;;;23.00;19.80;;;;;;;5.38;69.02;102354.95;111077;1254;23689;-79
2023/02/14 07:18:28;;;;;;;30.70;20.80;;;;;;;5.43;68.98;102355.71;111328;1254;21958;-79
2023/02/14 07:20:56;;;;;;;32.70;21.80;;;;;;;5.49;68.99;102353.91;111332;1254;23023;-79
2023/02/14 07:23:23;;;;;;;26.90;22.10;;;;;;;5.53;68.89;102353.45;111381;1254;21959;-79
2023/02/14 07:25:51;;;;;;;23.80;20.50;;;;;;;5.57;68.78;102358.34;111226;1254;22164;-79
2023/02/14 07:28:19;;;;;;;23.90;19.10;;;;;;;5.63;68.96;102358.09;111330;1245;21960;-79
2023/02/14 07:30:47;;;;;;;20.70;18.00;;;;;;;5.70;68.81;102356.46;111191;1254;22893;-79
2023/02/14 07:33:15;;;;;;;24.40;19.20;;;;;;;5.72;68.52;102359.24;111283;1255;21977;-78
2023/02/14 07:35:43;;;;;;;22.60;18.40;;;;;;;5.74;68.47;102363.94;111103;1254;22003;-79
2023/02/14 07:38:11;;;;;;;22.00;18.50;;;;;;;5.80;68.59;102366.11;111376;1252;21977;-79
2023/02/14 07:40:39;;;;;;;22.40;19.00;;;;;;;5.84;68.57;102364.63;111121;1254;21965;-79
2023/02/14 07:43:07;;;;;;;24.00;19.00;;;;;;;5.89;68.45;102362.42;111263;1254;23684;-80
2023/02/14 07:45:35;;;;;;;22.20;17.50;;;;;;;5.92;68.18;102366.45;111252;1254;21930;-79
2023/02/14 07:48:03;;;;;;;23.90;18.00;;;;;;;5.95;68.06;102371.70;111366;1254;21964;-79
2023/02/14 07:50:31;;;;;;;22.30;17.80;;;;;;;5.98;68.00;102375.54;111493;1254;24998;-81
2023/02/14 07:52:58;;;;;;;19.00;16.70;;;;;;;6.00;67.97;102379.04;111159;1254;23036;-81
2023/02/14 07:55:26;;;;;;;20.20;18.10;;;;;;;6.03;67.89;102377.51;111329;1254;21948;-82
2023/02/14 07:57:54;;;;;;;19.90;16.30;;;;;;;6.08;67.92;102376.19;111487;1254;23654;-81
2023/02/14 08:00:22;;;;;;;22.10;17.10;;;;;;;6.14;67.75;102372.46;111414;1254;21960;-81
2023/02/14 08:02:50;;;;;;;21.20;17.30;;;;;;;6.18;67.61;102372.87;111326;1255;23722;-81
2023/02/14 08:05:18;;;;;;;20.00;17.40;;;;;;;6.22;67.63;102380.37;111149;1255;23669;-82
2023/02/14 08:07:46;;;;;;;22.60;18.80;;;;;;;6.27;67.41;102381.80;111102;1255;22032;-80
2023/02/14 08:10:14;;;;;;;23.00;17.60;;;;;;;6.29;67.29;102381.65;111401;1254;22484;-80
2023/02/14 08:13:00;;;;;;;27.00;18.50;;;;;;;6.34;67.28;102377.55;111244;1254;21957;-81
2023/02/14 08:18:23;;;;;;;24.30;17.80;;;;;;;6.39;66.88;102378.83;111286;1254;22035;-77
2023/02/14 08:20:51;;;;;;;21.30;17.30;;;;;;;6.41;66.77;102370.55;111423;1254;22205;-78
2023/02/14 08:23:20;;;;;;;21.90;17.10;;;;;;;6.46;66.77;102372.69;111258;1254;21954;-78
2023/02/14 08:25:50;;;;;;;17.60;14.50;;;;;;;6.53;66.77;102375.71;111306;1254;22238;-79
2023/02/14 08:28:18;;;;;;;21.90;16.60;;;;;;;6.60;66.58;102372.33;111568;1254;21974;-78
2023/02/14 08:30:49;;;;;;;22.70;16.30;;;;;;;6.65;66.39;102371.86;111462;1254;21969;-79
2023/02/14 08:33:17;;;;;;;18.40;16.50;;;;;;;6.70;66.23;102372.27;111541;1254;23621;-77
2023/02/14 08:35:45;;;;;;;21.20;16.20;;;;;;;6.75;66.20;102375.27;111341;1254;22520;-78
2023/02/14 08:38:13;;;;;;;20.70;17.50;;;;;;;6.84;66.17;102373.27;111449;1254;22010;-78
2023/02/14 08:40:41;;;;;;;18.10;15.70;;;;;;;6.92;66.13;102379.76;111327;1254;21985;-77
2023/02/14 08:43:10;;;;;;;20.50;16.80;;;;;;;6.96;65.76;102390.88;111355;1254;23024;-77
2023/02/14 08:45:39;;;;;;;23.80;15.20;;;;;;;6.97;65.44;102390.89;111192;1254;21944;-78
2023/02/14 08:48:10;;;;;;;15.40;13.50;;;;;;;6.94;65.05;102386.88;111224;1254;23630;-78
2023/02/14 08:50:39;;;;;;;16.40;14.50;;;;;;;6.95;64.95;102385.84;111265;1254;21986;-77
2023/02/14 08:53:10;;;;;;;16.10;12.10;;;;;;;6.93;64.72;102389.46;111194;1255;23711;-78
2023/02/14 08:55:39;;;;;;;20.10;13.30;;;;;;;6.94;64.89;102389.30;111403;1255;21963;-76
2023/02/14 08:58:07;;;;;;;15.80;13.00;;;;;;;7.03;64.99;102389.55;111338;1254;23705;-76
2023/02/14 09:00:34;;;;;;;16.90;11.60;;;;;;;7.12;64.75;102392.23;111088;1254;23700;-77
2023/02/14 09:03:03;;;;;;;13.80;11.60;;;;;;;7.16;64.33;102391.23;111164;1255;22733;-82
2023/02/14 09:05:32;;;;;;;17.30;12.70;;;;;;;7.17;64.07;102394.54;111421;1254;21995;-77
2023/02/14 09:08:02;;;;;;;14.20;11.30;;;;;;;7.16;63.91;102400.23;111133;1254;21962;-77
2023/02/14 09:10:30;;;;;;;15.50;11.90;;;;;;;7.15;63.74;102407.50;111281;1254;22736;-77
2023/02/14 09:12:58;;;;;;;16.10;11.00;;;;;;;7.13;63.71;102403.15;111291;1255;21991;-78
2023/02/14 09:15:25;;;;;;;17.40;12.20;;;;;;;7.15;63.63;102402.14;111304;1255;24371;-76
2023/02/14 09:17:53;;;;;;;18.20;11.50;;;;;;;7.14;63.33;102402.82;111456;1254;21977;-76
2023/02/14 09:20:21;;;;;;;15.90;10.90;;;;;;;7.13;63.14;102408.00;111112;1254;22487;-77
2023/02/14 09:22:49;;;;;;;11.30;9.00;;;;;;;7.12;63.14;102414.74;111131;1254;21965;-78
2023/02/14 09:25:17;;;;;;;14.80;9.80;;;;;;;7.12;63.11;102406.96;111175;1255;21959;-78
2023/02/14 09:27:44;;;;;;;13.70;10.20;;;;;;;7.14;63.18;102408.88;111271;1255;23686;-78
2023/02/14 09:30:13;;;;;;;12.10;10.80;;;;;;;7.16;63.00;102414.09;111345;1254;21956;-78
2023/02/14 09:32:41;;;;;;;29.00;18.00;;;;;;;7.17;62.68;102417.22;111388;1254;21992;-77
2023/02/14 09:40:43;;;;;;;14.90;11.20;;;;;;;7.11;62.79;102406.08;111170;1255;23676;-77
2023/02/14 09:43:32;;;;;;;18.70;10.80;;;;;;;7.11;62.79;102407.81;111256;1255;22112;-77
2023/02/14 09:46:02;;;;;;;16.50;11.00;;;;;;;7.12;62.87;102407.65;111458;1254;21973;-76
2023/02/14 09:48:42;;;;;;;11.80;8.10;;;;;;;7.16;63.03;102404.91;111178;1254;21956;-78
2023/02/14 09:51:22;;;;;;;11.40;6.60;;;;;;;7.21;62.96;102406.34;111306;1254;23648;-83
2023/02/14 09:54:13;;;;;;;9.70;6.90;;;;;;;7.24;62.43;102409.84;111546;1253;21952;-78
2023/02/14 09:57:05;;;;;;;12.30;7.10;;;;;;;7.15;62.03;102405.08;111115;1255;23648;-79
2023/02/14 10:00:25;;;;;;;8.90;5.90;;;;;;;7.09;62.06;102396.54;109831;1255;1883495;-78
2023/02/14 10:03:07;;;;;;;11.10;7.30;;;;;;;6.96;61.76;102401.27;110857;1260;23777;-84
2023/02/14 10:05:46;;;;;;;;;;;;;;;6.85;61.97;102413.77;110600;1262;23863;-82
2023/02/14 10:08:30;;;;;;;13.00;7.00;;;;;;;6.75;62.38;102409.35;110855;1260;22824;-82
2023/02/14 10:11:09;;;;;;;12.00;7.70;;;;;;;6.78;62.63;102410.94;110645;1260;22155;-82
2023/02/14 10:13:48;;;;;;;12.50;7.70;;;;;;;6.85;62.46;102410.66;110761;1261;23056;-82
2023/02/14 10:16:32;;;;;;;15.50;8.80;;;;;;;6.91;62.43;102409.51;110801;1260;21981;-82
2023/02/14 10:19:39;;;;;;;14.80;7.80;;;;;;;6.93;62.19;102399.31;110802;1261;22063;-82
2023/02/14 10:22:20;;;;;;;15.30;7.00;;;;;;;6.89;62.18;102396.68;109599;1269;23671;-82
2023/02/14 10:25:07;;;;;;;14.50;8.40;;;;;;;6.97;62.39;102397.45;110216;1268;22008;-84
2023/02/14 10:27:41;;;;;;;11.20;7.00;;;;;;;7.08;62.46;102396.70;110035;1269;22012;-78
2023/02/14 10:30:20;;;;;;;21.00;8.60;;;;;;;7.17;62.08;102389.52;109910;1269;21978;-81
2023/02/14 10:33:27;;;;;;;15.20;8.70;;;;;;;7.25;62.03;102388.36;110034;1269;22185;-80
2023/02/14 10:36:04;;;;;;;10.90;7.70;;;;;;;7.33;61.86;102386.35;109037;1273;21989;-80
2023/02/14 10:38:46;;;;;;;18.90;9.70;;;;;;;7.36;61.59;102381.01;109021;1269;24338;-82
2023/02/14 10:41:38;;;;;;;10.90;6.80;;;;;;;7.41;61.65;102375.85;109266;1275;22006;-80
2023/02/14 10:44:51;;;;;;;13.30;6.40;;;;;;;7.46;61.41;102379.69;109311;1273;22002;-79
2023/02/14 10:47:25;;;;;;;11.20;7.70;;;;;;;7.44;61.00;102379.33;108782;1280;21995;-79
2023/02/14 10:50:20;;;;;;;15.60;8.10;;;;;;;7.42;60.87;102378.28;108613;1280;22070;-80
2023/02/14 10:53:02;;;;;;;19.70;8.00;;;;;;;7.52;61.18;102381.30;108641;1282;22207;-78
2023/02/14 10:55:55;;;;;;;12.70;8.10;;;;;;;7.63;61.08;102382.25;108619;1281;21987;-79
2023/02/14 10:58:33;;;;;;;13.30;8.30;;;;;;;7.68;60.61;102382.45;108954;1270;23722;-78
2023/02/14 11:01:12;;;;;;;18.70;7.60;;;;;;;7.71;60.40;102381.09;109681;1269;22004;-78
2023/02/14 11:04:02;;;;;;;11.60;7.00;;;;;;;7.73;60.34;102378.52;109850;1270;21985;-79
2023/02/14 11:06:30;;;;;;;10.20;7.40;;;;;;;7.71;60.21;102377.10;109894;1270;22004;-80
2023/02/14 11:08:58;;;;;;;10.60;7.10;;;;;;;7.69;60.13;102373.45;109774;1270;23129;-81
2023/02/14 11:11:30;;;;;;;9.60;6.60;;;;;;;7.70;60.13;102375.70;109997;1263;23633;-80
2023/02/14 11:13:58;;;;;;;10.30;7.60;;;;;;;7.71;59.98;102380.73;110540;1263;22720;-79
2023/02/14 11:16:32;;;;;;;13.10;7.00;;;;;;;7.73;59.90;102380.92;110384;1262;21988;-80
2023/02/14 11:19:34;;;;;;;12.30;5.70;;;;;;;7.64;59.49;102373.93;110633;1263;22716;-78
2023/02/14 11:22:04;;;;;;;14.60;6.70;;;;;;;7.56;59.90;102370.59;109590;1256;23764;-80
2023/02/14 11:24:41;;;;;;;19.10;7.50;;;;;;;7.63;60.06;102371.51;109998;1262;23139;-80
2023/02/14 11:32:53;;;;;;;9.90;6.60;;;;;;;7.86;60.26;102363.84;110757;1257;21972;-80
2023/02/14 11:35:32;;;;;;;10.70;6.30;;;;;;;7.92;59.82;102364.05;110562;1261;23615;-88
2023/02/14 11:38:05;;;;;;;10.60;7.10;;;;;;;7.91;59.37;102365.78;110948;1262;23022;-87
2023/02/14 11:40:37;;;;;;;13.00;7.30;;;;;;;7.90;59.55;102366.13;110410;1262;23361;-84
2023/02/14 11:43:36;;;;;;;15.20;7.70;;;;;;;7.95;59.51;102367.20;109999;1267;21990;-82
2023/02/14 11:46:23;;;;;;;17.70;7.40;;;;;;;7.93;59.26;102363.36;109375;1272;21991;-82
2023/02/14 11:49:05;;;;;;;14.80;7.30;;;;;;;7.87;59.08;102361.95;109407;1274;21990;-83
2023/02/14 11:51:44;;;;;;;11.10;6.00;;;;;;;7.87;59.21;102365.41;109150;1274;22329;-83
2023/02/14 11:54:31;;;;;;;13.60;7.40;;;;;;;7.84;59.23;102366.09;109164;1274;22023;-82
2023/02/14 11:57:26;;;;;;;9.20;6.70;;;;;;;7.82;59.19;102359.83;109414;1274;21980;-83
2023/02/14 11:59:57;;;;;;;9.70;6.00;;;;;;;7.81;59.14;102358.09;110065;1265;21982;-80
2023/02/14 12:02:43;;;;;;;11.10;6.20;;;;;;;7.78;58.92;102359.13;110881;1260;22036;-79
2023/02/14 12:05:20;;;;;;;13.50;6.60;;;;;;;7.68;58.97;102356.45;110588;1261;23730;-81
2023/02/14 12:08:07;;;;;;;15.40;7.20;;;;;;;7.67;59.27;102353.52;110837;1261;21998;-82
2023/02/14 12:10:37;;;;;;;10.20;6.70;;;;;;;7.71;59.43;102355.62;110755;1261;23026;-81
2023/02/14 12:13:08;;;;;;;11.60;7.70;;;;;;;7.77;59.42;102354.27;110984;1260;21975;-81
2023/02/14 12:15:51;;;;;;;14.20;6.90;;;;;;;7.83;59.35;102349.96;110997;1261;23027;-80